ITY170 LSZH-LPPT
Flight info
| Callsign | ITY170 |
|---|---|
| Flight time | 2h 20m |
| Altitude | 39000 |
| Route | VEBIT4W VEBIT T50 ROTOS Z669 ULMES DCT VADAR DCT NINTU DCT MEBAK DCT REPSI DCT LERGA DCT MINSO DCT NARAK DCT AGN DCT LATEK DCT PPN N976 NEA DCT ARDID DCT INBOM INBOM1A |
| Aircraft | A339/H-SDE3FGHIRWY/5566 |
Departure
| Time | 2026-05-07 13:10 |
|---|---|
| Airport | Zürich Airport (LSZH) |
Arrival
| Time | 2026-05-07 15:31 |
|---|---|
| Airport | Lisbon Humberto Delgado Airport (LPPT) |
| Time | Latitude | Longitude | Altitude | Speed | Heading |
|---|---|---|---|---|---|
| 2026-05-07 12:54 | 47.45330 | 8.55942 | 1403 ft | 0 kts | 6° |
| 2026-05-07 12:58 | 47.45306 | 8.55936 | 1411 ft | 7 kts | 15° |
| 2026-05-07 12:58 | 47.45256 | 8.55942 | 1413 ft | 7 kts | 306° |
| 2026-05-07 12:58 | 47.45248 | 8.55955 | 1411 ft | 0 kts | 276° |
| 2026-05-07 12:59 | 47.45248 | 8.55954 | 1411 ft | 1 kts | 276° |
| 2026-05-07 12:59 | 47.45248 | 8.55947 | 1412 ft | 0 kts | 276° |
| 2026-05-07 13:03 | 47.45248 | 8.55946 | 1403 ft | 1 kts | 276° |
| 2026-05-07 13:04 | 47.45251 | 8.55912 | 1406 ft | 6 kts | 276° |
| 2026-05-07 13:04 | 47.45257 | 8.55830 | 1409 ft | 10 kts | 276° |
| 2026-05-07 13:04 | 47.45267 | 8.55701 | 1403 ft | 15 kts | 276° |
| 2026-05-07 13:04 | 47.45306 | 8.55553 | 1410 ft | 15 kts | 322° |
| 2026-05-07 13:05 | 47.45411 | 8.55483 | 1407 ft | 18 kts | 335° |
| 2026-05-07 13:05 | 47.45528 | 8.55468 | 1411 ft | 11 kts | 38° |
| 2026-05-07 13:05 | 47.45522 | 8.55587 | 1404 ft | 16 kts | 106° |
| 2026-05-07 13:05 | 47.45504 | 8.55797 | 1410 ft | 25 kts | 96° |
| 2026-05-07 13:06 | 47.45483 | 8.56101 | 1403 ft | 34 kts | 96° |
| 2026-05-07 13:06 | 47.45573 | 8.56409 | 1411 ft | 34 kts | 56° |
| 2026-05-07 13:06 | 47.45580 | 8.56666 | 1409 ft | 24 kts | 95° |
| 2026-05-07 13:06 | 47.45562 | 8.56916 | 1403 ft | 18 kts | 96° |
| 2026-05-07 13:07 | 47.45560 | 8.56939 | 1410 ft | 1 kts | 95° |
| 2026-05-07 13:07 | 47.45564 | 8.56959 | 1408 ft | 2 kts | 76° |
| 2026-05-07 13:07 | 47.45572 | 8.56976 | 1404 ft | 2 kts | 61° |
| 2026-05-07 13:07 | 47.45573 | 8.56980 | 1404 ft | 1 kts | 61° |
| 2026-05-07 13:08 | 47.45610 | 8.57020 | 1412 ft | 14 kts | 25° |
| 2026-05-07 13:08 | 47.45664 | 8.56965 | 1410 ft | 0 kts | 278° |
| 2026-05-07 13:08 | 47.45665 | 8.56954 | 1407 ft | 4 kts | 279° |
| 2026-05-07 13:08 | 47.45669 | 8.56902 | 1404 ft | 0 kts | 276° |
| 2026-05-07 13:09 | 47.45685 | 8.56698 | 1404 ft | 60 kts | 276° |
| 2026-05-07 13:09 | 47.45757 | 8.55654 | 1403 ft | 141 kts | 277° |
| 2026-05-07 13:10 | 47.45848 | 8.53988 | 1827 ft | 167 kts | 277° |
| 2026-05-07 13:10 | 47.45971 | 8.52258 | 2790 ft | 172 kts | 276° |
| 2026-05-07 13:10 | 47.46111 | 8.50459 | 3551 ft | 185 kts | 276° |
| 2026-05-07 13:10 | 47.46258 | 8.48549 | 4319 ft | 188 kts | 276° |
| 2026-05-07 13:11 | 47.46094 | 8.46606 | 4946 ft | 197 kts | 243° |
| 2026-05-07 13:11 | 47.45123 | 8.45192 | 5732 ft | 199 kts | 214° |
| 2026-05-07 13:11 | 47.43942 | 8.44057 | 6353 ft | 209 kts | 218° |
| 2026-05-07 13:11 | 47.42847 | 8.42504 | 6701 ft | 228 kts | 229° |
| 2026-05-07 13:12 | 47.41784 | 8.40622 | 7055 ft | 248 kts | 233° |
| 2026-05-07 13:12 | 47.40723 | 8.38493 | 7370 ft | 265 kts | 236° |
| 2026-05-07 13:12 | 47.39669 | 8.36242 | 8050 ft | 268 kts | 236° |
| 2026-05-07 13:12 | 47.38620 | 8.33959 | 8797 ft | 269 kts | 237° |
| 2026-05-07 13:13 | 47.37684 | 8.31563 | 9573 ft | 271 kts | 243° |
| 2026-05-07 13:13 | 47.36856 | 8.29086 | 10267 ft | 274 kts | 244° |
| 2026-05-07 13:13 | 47.36000 | 8.26473 | 10512 ft | 293 kts | 244° |
| 2026-05-07 13:13 | 47.35061 | 8.23687 | 10695 ft | 313 kts | 243° |
| 2026-05-07 13:14 | 47.34045 | 8.20756 | 11057 ft | 324 kts | 243° |
| 2026-05-07 13:14 | 47.33003 | 8.17799 | 11688 ft | 327 kts | 243° |
| 2026-05-07 13:14 | 47.31942 | 8.14815 | 12283 ft | 330 kts | 242° |
| 2026-05-07 13:14 | 47.30869 | 8.11807 | 12910 ft | 333 kts | 242° |
| 2026-05-07 13:15 | 47.29787 | 8.08767 | 13531 ft | 336 kts | 242° |
| 2026-05-07 13:15 | 47.28695 | 8.05704 | 14111 ft | 340 kts | 242° |
| 2026-05-07 13:15 | 47.27584 | 8.02588 | 14636 ft | 344 kts | 242° |
| 2026-05-07 13:15 | 47.26518 | 7.99420 | 15158 ft | 347 kts | 247° |
| 2026-05-07 13:16 | 47.25604 | 7.96112 | 15699 ft | 350 kts | 248° |
| 2026-05-07 13:16 | 47.24691 | 7.92810 | 16229 ft | 354 kts | 248° |
| 2026-05-07 13:16 | 47.23753 | 7.89441 | 16746 ft | 357 kts | 248° |
| 2026-05-07 13:16 | 47.22804 | 7.86049 | 17290 ft | 360 kts | 248° |
| 2026-05-07 13:17 | 47.21845 | 7.82631 | 17825 ft | 363 kts | 248° |
| 2026-05-07 13:17 | 47.20873 | 7.79177 | 18337 ft | 367 kts | 248° |
| 2026-05-07 13:17 | 47.19889 | 7.75695 | 18827 ft | 369 kts | 247° |
| 2026-05-07 13:17 | 47.18721 | 7.72314 | 19322 ft | 372 kts | 240° |
| 2026-05-07 13:18 | 47.17247 | 7.69177 | 19839 ft | 375 kts | 232° |
| 2026-05-07 13:18 | 47.15598 | 7.66189 | 20327 ft | 377 kts | 232° |
| 2026-05-07 13:18 | 47.13946 | 7.63165 | 20820 ft | 380 kts | 232° |
| 2026-05-07 13:18 | 47.12295 | 7.60122 | 21325 ft | 382 kts | 232° |
| 2026-05-07 13:19 | 47.10656 | 7.57092 | 21807 ft | 385 kts | 232° |
| 2026-05-07 13:19 | 47.08987 | 7.54008 | 22309 ft | 388 kts | 232° |
| 2026-05-07 13:19 | 47.07299 | 7.50890 | 22820 ft | 390 kts | 232° |
| 2026-05-07 13:19 | 47.05601 | 7.47758 | 23305 ft | 394 kts | 232° |
| 2026-05-07 13:20 | 47.03893 | 7.44611 | 23754 ft | 396 kts | 232° |
| 2026-05-07 13:20 | 47.02172 | 7.41443 | 24195 ft | 398 kts | 232° |
| 2026-05-07 13:20 | 47.00436 | 7.38262 | 24648 ft | 400 kts | 232° |
| 2026-05-07 13:20 | 46.98690 | 7.35076 | 25083 ft | 402 kts | 232° |
| 2026-05-07 13:21 | 46.96937 | 7.31880 | 25526 ft | 404 kts | 232° |
| 2026-05-07 13:21 | 46.95173 | 7.28668 | 25964 ft | 406 kts | 232° |
| 2026-05-07 13:21 | 46.93395 | 7.25428 | 26392 ft | 409 kts | 232° |
| 2026-05-07 13:21 | 46.91612 | 7.22174 | 26813 ft | 411 kts | 232° |
| 2026-05-07 13:22 | 46.89819 | 7.18905 | 27268 ft | 413 kts | 233° |
| 2026-05-07 13:22 | 46.88013 | 7.15617 | 27709 ft | 415 kts | 233° |
| 2026-05-07 13:22 | 46.86201 | 7.12322 | 28113 ft | 417 kts | 233° |
| 2026-05-07 13:22 | 46.84379 | 7.09016 | 28523 ft | 419 kts | 233° |
| 2026-05-07 13:23 | 46.82547 | 7.05693 | 28917 ft | 421 kts | 233° |
| 2026-05-07 13:23 | 46.80701 | 7.02349 | 29316 ft | 423 kts | 233° |
| 2026-05-07 13:23 | 46.78874 | 6.99043 | 29686 ft | 425 kts | 233° |
| 2026-05-07 13:23 | 46.77008 | 6.95673 | 30076 ft | 428 kts | 233° |
| 2026-05-07 13:24 | 46.75134 | 6.92292 | 30425 ft | 429 kts | 233° |
| 2026-05-07 13:24 | 46.73253 | 6.88902 | 30785 ft | 431 kts | 233° |
| 2026-05-07 13:24 | 46.71365 | 6.85505 | 31145 ft | 432 kts | 233° |
| 2026-05-07 13:24 | 46.69469 | 6.82096 | 31486 ft | 434 kts | 233° |
| 2026-05-07 13:25 | 46.67565 | 6.78678 | 31840 ft | 435 kts | 233° |
| 2026-05-07 13:25 | 46.65691 | 6.75195 | 32123 ft | 437 kts | 237° |
| 2026-05-07 13:25 | 46.64061 | 6.71471 | 32443 ft | 436 kts | 241° |
| 2026-05-07 13:25 | 46.62502 | 6.67681 | 32734 ft | 438 kts | 241° |
| 2026-05-07 13:26 | 46.60927 | 6.63877 | 32997 ft | 439 kts | 241° |
| 2026-05-07 13:26 | 46.59343 | 6.60071 | 33217 ft | 440 kts | 241° |
| 2026-05-07 13:26 | 46.57753 | 6.56265 | 33430 ft | 441 kts | 241° |
| 2026-05-07 13:26 | 46.56154 | 6.52446 | 33640 ft | 442 kts | 241° |
| 2026-05-07 13:27 | 46.54558 | 6.48642 | 33874 ft | 441 kts | 241° |
| 2026-05-07 13:27 | 46.52978 | 6.44883 | 34106 ft | 440 kts | 240° |
| 2026-05-07 13:27 | 46.51367 | 6.41051 | 34289 ft | 440 kts | 240° |
| 2026-05-07 13:27 | 46.49786 | 6.37298 | 34462 ft | 440 kts | 240° |
| 2026-05-07 13:28 | 46.48189 | 6.33509 | 34645 ft | 440 kts | 240° |
| 2026-05-07 13:28 | 46.46586 | 6.29714 | 34803 ft | 440 kts | 240° |
| 2026-05-07 13:28 | 46.44989 | 6.25937 | 35002 ft | 440 kts | 240° |
| 2026-05-07 13:28 | 46.43383 | 6.22144 | 35164 ft | 440 kts | 240° |
| 2026-05-07 13:29 | 46.41783 | 6.18372 | 35348 ft | 440 kts | 240° |
| 2026-05-07 13:29 | 46.40180 | 6.14593 | 35510 ft | 440 kts | 240° |
| 2026-05-07 13:29 | 46.38573 | 6.10814 | 35679 ft | 440 kts | 240° |
| 2026-05-07 13:29 | 46.36960 | 6.07026 | 35870 ft | 440 kts | 240° |
| 2026-05-07 13:30 | 46.35355 | 6.03257 | 36039 ft | 440 kts | 240° |
| 2026-05-07 13:30 | 46.33745 | 5.99483 | 36224 ft | 440 kts | 239° |
| 2026-05-07 13:30 | 46.32135 | 5.95718 | 36399 ft | 441 kts | 239° |
| 2026-05-07 13:30 | 46.30544 | 5.92000 | 36583 ft | 440 kts | 239° |
| 2026-05-07 13:31 | 46.28929 | 5.88231 | 36746 ft | 440 kts | 239° |
| 2026-05-07 13:31 | 46.27312 | 5.84465 | 36892 ft | 441 kts | 239° |
| 2026-05-07 13:31 | 46.25694 | 5.80701 | 37070 ft | 441 kts | 239° |
| 2026-05-07 13:31 | 46.24077 | 5.76944 | 37237 ft | 441 kts | 239° |
| 2026-05-07 13:32 | 46.22455 | 5.73178 | 37395 ft | 441 kts | 239° |
| 2026-05-07 13:32 | 46.20835 | 5.69423 | 37545 ft | 441 kts | 239° |
| 2026-05-07 13:32 | 46.19211 | 5.65664 | 37698 ft | 441 kts | 239° |
| 2026-05-07 13:32 | 46.17584 | 5.61903 | 37867 ft | 441 kts | 239° |
| 2026-05-07 13:33 | 46.15956 | 5.58146 | 38021 ft | 441 kts | 239° |
| 2026-05-07 13:33 | 46.14304 | 5.54407 | 38171 ft | 442 kts | 237° |
| 2026-05-07 13:33 | 46.12547 | 5.50758 | 38317 ft | 442 kts | 236° |
| 2026-05-07 13:33 | 46.10799 | 5.47123 | 38476 ft | 442 kts | 236° |
| 2026-05-07 13:34 | 46.09052 | 5.43478 | 38628 ft | 442 kts | 236° |
| 2026-05-07 13:34 | 46.05578 | 5.36241 | 38883 ft | 442 kts | 236° |
| 2026-05-07 13:35 | 46.02067 | 5.28951 | 39005 ft | 444 kts | 236° |
| 2026-05-07 13:35 | 45.98524 | 5.21617 | 39013 ft | 448 kts | 236° |
| 2026-05-07 13:36 | 45.94948 | 5.14233 | 39011 ft | 450 kts | 236° |
| 2026-05-07 13:36 | 45.91377 | 5.06823 | 39011 ft | 451 kts | 239° |
| 2026-05-07 13:37 | 45.87963 | 4.99264 | 39013 ft | 452 kts | 237° |
| 2026-05-07 13:37 | 45.84523 | 4.91720 | 39028 ft | 452 kts | 238° |
| 2026-05-07 13:38 | 45.81140 | 4.84229 | 39335 ft | 444 kts | 238° |
| 2026-05-07 13:38 | 45.79473 | 4.80536 | 39595 ft | 441 kts | 238° |
| 2026-05-07 13:38 | 45.77807 | 4.76848 | 39705 ft | 440 kts | 238° |
| 2026-05-07 13:39 | 45.75031 | 4.70719 | 39878 ft | 440 kts | 238° |
| 2026-05-07 13:39 | 45.73358 | 4.67034 | 39979 ft | 441 kts | 238° |
| 2026-05-07 13:39 | 45.71686 | 4.63356 | 40066 ft | 441 kts | 237° |
| 2026-05-07 13:40 | 45.68337 | 4.56005 | 40262 ft | 441 kts | 237° |
| 2026-05-07 13:40 | 45.64980 | 4.48655 | 40442 ft | 441 kts | 237° |
| 2026-05-07 13:40 | 45.63300 | 4.44983 | 40555 ft | 441 kts | 237° |
| 2026-05-07 13:41 | 45.61615 | 4.41306 | 40651 ft | 441 kts | 237° |
| 2026-05-07 13:41 | 45.58250 | 4.33976 | 40844 ft | 442 kts | 237° |
| 2026-05-07 13:41 | 45.56561 | 4.30306 | 40946 ft | 441 kts | 237° |
| 2026-05-07 13:42 | 45.54876 | 4.26647 | 41012 ft | 442 kts | 237° |
| 2026-05-07 13:42 | 45.51501 | 4.19334 | 41046 ft | 445 kts | 237° |
| 2026-05-07 13:43 | 45.48084 | 4.11950 | 41112 ft | 446 kts | 237° |
| 2026-05-07 13:43 | 45.44657 | 4.04564 | 41103 ft | 448 kts | 237° |
| 2026-05-07 13:44 | 45.41207 | 3.97149 | 41097 ft | 450 kts | 237° |
| 2026-05-07 13:44 | 45.37748 | 3.89730 | 41087 ft | 451 kts | 237° |
| 2026-05-07 13:45 | 45.34275 | 3.82303 | 41096 ft | 451 kts | 237° |
| 2026-05-07 13:45 | 45.30792 | 3.74875 | 41108 ft | 451 kts | 237° |
| 2026-05-07 13:46 | 45.27302 | 3.67451 | 41112 ft | 451 kts | 237° |
| 2026-05-07 13:46 | 45.23835 | 3.60093 | 41112 ft | 451 kts | 236° |
| 2026-05-07 13:47 | 45.20336 | 3.52687 | 41109 ft | 452 kts | 236° |
| 2026-05-07 13:47 | 45.16832 | 3.45291 | 41101 ft | 451 kts | 236° |
| 2026-05-07 13:48 | 45.13319 | 3.37893 | 41094 ft | 452 kts | 236° |
| 2026-05-07 13:48 | 45.09802 | 3.30508 | 41086 ft | 452 kts | 236° |
| 2026-05-07 13:49 | 45.06284 | 3.23137 | 41082 ft | 452 kts | 236° |
| 2026-05-07 13:49 | 45.02788 | 3.15835 | 41083 ft | 452 kts | 236° |
| 2026-05-07 13:50 | 44.99253 | 3.08468 | 41083 ft | 452 kts | 236° |
| 2026-05-07 13:50 | 44.95723 | 3.01129 | 41085 ft | 452 kts | 236° |
| 2026-05-07 13:51 | 44.92190 | 2.93804 | 41090 ft | 452 kts | 236° |
| 2026-05-07 13:51 | 44.88649 | 2.86484 | 41089 ft | 452 kts | 236° |
| 2026-05-07 13:52 | 44.85098 | 2.79158 | 41095 ft | 452 kts | 236° |
| 2026-05-07 13:52 | 44.81568 | 2.71894 | 41094 ft | 452 kts | 235° |
| 2026-05-07 13:53 | 44.78007 | 2.64585 | 41093 ft | 452 kts | 235° |
| 2026-05-07 13:53 | 44.74446 | 2.57297 | 41093 ft | 452 kts | 235° |
| 2026-05-07 13:54 | 44.70876 | 2.50007 | 41095 ft | 452 kts | 235° |
| 2026-05-07 13:54 | 44.67301 | 2.42726 | 41095 ft | 452 kts | 235° |
| 2026-05-07 13:55 | 44.63749 | 2.35508 | 41095 ft | 452 kts | 235° |
| 2026-05-07 13:55 | 44.60142 | 2.28197 | 41099 ft | 453 kts | 235° |
| 2026-05-07 13:56 | 44.56551 | 2.20940 | 41099 ft | 453 kts | 235° |
| 2026-05-07 13:56 | 44.52976 | 2.13731 | 41102 ft | 453 kts | 235° |
| 2026-05-07 13:57 | 44.49372 | 2.06482 | 41100 ft | 453 kts | 234° |
| 2026-05-07 13:57 | 44.45758 | 1.99234 | 41101 ft | 453 kts | 234° |
| 2026-05-07 13:58 | 44.42141 | 1.91994 | 41098 ft | 453 kts | 234° |
| 2026-05-07 13:58 | 44.38533 | 1.84793 | 41100 ft | 454 kts | 234° |
| 2026-05-07 13:59 | 44.34906 | 1.77569 | 41093 ft | 454 kts | 234° |
| 2026-05-07 13:59 | 44.31275 | 1.70357 | 41096 ft | 454 kts | 234° |
| 2026-05-07 14:00 | 44.27643 | 1.63160 | 41094 ft | 454 kts | 234° |
| 2026-05-07 14:00 | 44.23992 | 1.55944 | 41090 ft | 454 kts | 234° |
| 2026-05-07 14:01 | 44.20341 | 1.48745 | 41087 ft | 454 kts | 234° |
| 2026-05-07 14:01 | 44.16752 | 1.41686 | 41086 ft | 455 kts | 234° |
| 2026-05-07 14:02 | 44.13053 | 1.34430 | 41079 ft | 454 kts | 234° |
| 2026-05-07 14:02 | 44.09390 | 1.27261 | 41081 ft | 454 kts | 234° |
| 2026-05-07 14:03 | 44.05725 | 1.20104 | 41083 ft | 454 kts | 234° |
| 2026-05-07 14:03 | 44.02055 | 1.12957 | 41080 ft | 454 kts | 234° |
| 2026-05-07 14:04 | 43.98377 | 1.05809 | 41078 ft | 455 kts | 234° |
| 2026-05-07 14:04 | 43.94693 | 0.98664 | 41071 ft | 455 kts | 234° |
| 2026-05-07 14:05 | 43.91004 | 0.91522 | 41072 ft | 455 kts | 234° |
| 2026-05-07 14:05 | 43.87112 | 0.84603 | 41068 ft | 455 kts | 229° |
| 2026-05-07 14:06 | 43.82893 | 0.78141 | 41070 ft | 455 kts | 228° |
| 2026-05-07 14:06 | 43.78672 | 0.71630 | 41069 ft | 455 kts | 228° |
| 2026-05-07 14:07 | 43.74444 | 0.65109 | 41066 ft | 455 kts | 228° |
| 2026-05-07 14:07 | 43.70215 | 0.58605 | 41066 ft | 454 kts | 228° |
| 2026-05-07 14:08 | 43.65977 | 0.52103 | 41062 ft | 454 kts | 228° |
| 2026-05-07 14:08 | 43.61738 | 0.45614 | 41061 ft | 455 kts | 228° |
| 2026-05-07 14:09 | 43.57528 | 0.39186 | 41059 ft | 455 kts | 228° |
| 2026-05-07 14:09 | 43.53279 | 0.32711 | 41056 ft | 455 kts | 227° |
| 2026-05-07 14:10 | 43.49023 | 0.26241 | 41053 ft | 455 kts | 227° |
| 2026-05-07 14:10 | 43.44774 | 0.19797 | 41061 ft | 455 kts | 227° |
| 2026-05-07 14:11 | 43.40503 | 0.13334 | 41060 ft | 456 kts | 227° |
| 2026-05-07 14:11 | 43.36241 | 0.06898 | 41060 ft | 455 kts | 227° |
| 2026-05-07 14:12 | 43.31968 | 0.00461 | 41063 ft | 455 kts | 227° |
| 2026-05-07 14:12 | 43.27723 | -0.05920 | 41064 ft | 455 kts | 227° |
| 2026-05-07 14:13 | 43.23446 | -0.12334 | 41066 ft | 455 kts | 227° |
| 2026-05-07 14:13 | 43.19159 | -0.18749 | 41064 ft | 455 kts | 227° |
| 2026-05-07 14:14 | 43.14875 | -0.25145 | 41059 ft | 455 kts | 227° |
| 2026-05-07 14:14 | 43.10589 | -0.31531 | 41057 ft | 456 kts | 227° |
| 2026-05-07 14:15 | 43.06297 | -0.37910 | 41055 ft | 455 kts | 227° |
| 2026-05-07 14:15 | 43.01999 | -0.44286 | 41054 ft | 456 kts | 227° |
| 2026-05-07 14:16 | 42.97721 | -0.50616 | 41046 ft | 456 kts | 227° |
| 2026-05-07 14:16 | 42.93419 | -0.56969 | 41051 ft | 456 kts | 227° |
| 2026-05-07 14:17 | 42.89528 | -0.63799 | 41043 ft | 457 kts | 238° |
| 2026-05-07 14:17 | 42.86909 | -0.71692 | 41044 ft | 458 kts | 251° |
| 2026-05-07 14:18 | 42.85569 | -0.80200 | 41038 ft | 460 kts | 258° |
| 2026-05-07 14:18 | 42.84469 | -0.88789 | 41032 ft | 460 kts | 258° |
| 2026-05-07 14:19 | 42.83332 | -0.97375 | 41031 ft | 460 kts | 258° |
| 2026-05-07 14:19 | 42.82192 | -1.05888 | 41028 ft | 460 kts | 258° |
| 2026-05-07 14:20 | 42.81036 | -1.14487 | 41028 ft | 460 kts | 258° |
| 2026-05-07 14:20 | 42.79877 | -1.23064 | 41028 ft | 461 kts | 258° |
| 2026-05-07 14:21 | 42.78708 | -1.31650 | 41031 ft | 460 kts | 258° |
| 2026-05-07 14:21 | 42.77541 | -1.40180 | 41034 ft | 460 kts | 258° |
| 2026-05-07 14:22 | 42.76362 | -1.48748 | 41034 ft | 460 kts | 258° |
| 2026-05-07 14:22 | 42.75177 | -1.57305 | 41038 ft | 460 kts | 258° |
| 2026-05-07 14:23 | 42.73985 | -1.65871 | 41040 ft | 460 kts | 258° |
| 2026-05-07 14:23 | 42.72479 | -1.74319 | 41036 ft | 459 kts | 251° |
| 2026-05-07 14:24 | 42.70596 | -1.82554 | 41033 ft | 459 kts | 252° |
| 2026-05-07 14:24 | 42.68727 | -1.90838 | 41025 ft | 459 kts | 252° |
| 2026-05-07 14:25 | 42.66849 | -1.99135 | 41018 ft | 459 kts | 252° |
| 2026-05-07 14:25 | 42.64965 | -2.07421 | 41009 ft | 459 kts | 252° |
| 2026-05-07 14:26 | 42.63392 | -2.14312 | 41004 ft | 459 kts | 252° |
| 2026-05-07 14:26 | 42.61441 | -2.22573 | 41001 ft | 459 kts | 251° |
| 2026-05-07 14:27 | 42.59423 | -2.30804 | 41004 ft | 459 kts | 251° |
| 2026-05-07 14:27 | 42.57422 | -2.38989 | 41001 ft | 460 kts | 251° |
| 2026-05-07 14:28 | 42.55411 | -2.47219 | 41003 ft | 460 kts | 251° |
| 2026-05-07 14:28 | 42.53395 | -2.55447 | 41006 ft | 460 kts | 251° |
| 2026-05-07 14:29 | 42.51367 | -2.63692 | 41003 ft | 460 kts | 251° |
| 2026-05-07 14:29 | 42.49338 | -2.71912 | 41002 ft | 461 kts | 251° |
| 2026-05-07 14:30 | 42.47296 | -2.80156 | 41006 ft | 461 kts | 251° |
| 2026-05-07 14:30 | 42.45191 | -2.88349 | 41007 ft | 460 kts | 248° |
| 2026-05-07 14:31 | 42.42557 | -2.96248 | 41008 ft | 460 kts | 245° |
| 2026-05-07 14:31 | 42.39870 | -3.04115 | 41006 ft | 460 kts | 245° |
| 2026-05-07 14:32 | 42.37184 | -3.11989 | 41007 ft | 461 kts | 245° |
| 2026-05-07 14:32 | 42.34510 | -3.19801 | 41008 ft | 461 kts | 245° |
| 2026-05-07 14:33 | 42.31813 | -3.27657 | 41013 ft | 461 kts | 245° |
| 2026-05-07 14:33 | 42.29107 | -3.35518 | 41009 ft | 461 kts | 245° |
| 2026-05-07 14:34 | 42.26391 | -3.43385 | 41010 ft | 461 kts | 245° |
| 2026-05-07 14:34 | 42.23669 | -3.51248 | 41009 ft | 462 kts | 245° |
| 2026-05-07 14:35 | 42.20944 | -3.59095 | 41010 ft | 462 kts | 245° |
| 2026-05-07 14:35 | 42.18227 | -3.66897 | 41009 ft | 462 kts | 245° |
| 2026-05-07 14:36 | 42.15483 | -3.74756 | 41005 ft | 462 kts | 245° |
| 2026-05-07 14:36 | 42.12741 | -3.82586 | 41002 ft | 463 kts | 245° |
| 2026-05-07 14:37 | 42.09988 | -3.90424 | 40994 ft | 463 kts | 245° |
| 2026-05-07 14:37 | 42.05863 | -4.02131 | 40998 ft | 463 kts | 245° |
| 2026-05-07 14:38 | 42.03095 | -4.09959 | 40997 ft | 463 kts | 245° |
| 2026-05-07 14:38 | 42.00229 | -4.17726 | 40997 ft | 463 kts | 243° |
| 2026-05-07 14:39 | 41.97263 | -4.25423 | 40999 ft | 464 kts | 243° |
| 2026-05-07 14:39 | 41.94312 | -4.33132 | 40998 ft | 464 kts | 243° |
| 2026-05-07 14:40 | 41.91363 | -4.40849 | 40999 ft | 464 kts | 243° |
| 2026-05-07 14:40 | 41.88408 | -4.48565 | 40996 ft | 464 kts | 243° |
| 2026-05-07 14:41 | 41.85451 | -4.56264 | 40998 ft | 464 kts | 243° |
| 2026-05-07 14:41 | 41.82503 | -4.63917 | 40999 ft | 464 kts | 243° |
| 2026-05-07 14:42 | 41.79533 | -4.71609 | 40998 ft | 464 kts | 243° |
| 2026-05-07 14:42 | 41.76559 | -4.79290 | 40993 ft | 464 kts | 243° |
| 2026-05-07 14:43 | 41.73572 | -4.86984 | 40994 ft | 464 kts | 243° |
| 2026-05-07 14:43 | 41.70583 | -4.94662 | 40986 ft | 464 kts | 243° |
| 2026-05-07 14:44 | 41.67594 | -5.02323 | 40989 ft | 464 kts | 243° |
| 2026-05-07 14:44 | 41.64617 | -5.09931 | 40989 ft | 464 kts | 243° |
| 2026-05-07 14:45 | 41.61623 | -5.17564 | 40989 ft | 464 kts | 243° |
| 2026-05-07 14:45 | 41.58624 | -5.25190 | 40984 ft | 463 kts | 243° |
| 2026-05-07 14:46 | 41.55616 | -5.32817 | 40984 ft | 463 kts | 243° |
| 2026-05-07 14:46 | 41.52626 | -5.40377 | 40981 ft | 463 kts | 243° |
| 2026-05-07 14:47 | 41.49618 | -5.47965 | 40976 ft | 462 kts | 243° |
| 2026-05-07 14:47 | 41.46608 | -5.55539 | 40977 ft | 462 kts | 243° |
| 2026-05-07 14:48 | 41.43596 | -5.63100 | 40979 ft | 461 kts | 243° |
| 2026-05-07 14:48 | 41.40582 | -5.70646 | 40978 ft | 461 kts | 243° |
| 2026-05-07 14:49 | 41.37561 | -5.78188 | 40976 ft | 461 kts | 243° |
| 2026-05-07 14:49 | 41.34066 | -5.85297 | 40979 ft | 461 kts | 237° |
| 2026-05-07 14:50 | 41.30367 | -5.92286 | 40976 ft | 461 kts | 237° |
| 2026-05-07 14:50 | 41.26684 | -5.99270 | 40971 ft | 461 kts | 237° |
| 2026-05-07 14:51 | 41.22995 | -6.06257 | 40967 ft | 461 kts | 237° |
| 2026-05-07 14:51 | 41.19315 | -6.13208 | 40971 ft | 460 kts | 237° |
| 2026-05-07 14:52 | 41.15644 | -6.20126 | 40965 ft | 460 kts | 237° |
| 2026-05-07 14:52 | 41.11958 | -6.27058 | 40965 ft | 459 kts | 237° |
| 2026-05-07 14:53 | 41.08268 | -6.33981 | 40966 ft | 459 kts | 237° |
| 2026-05-07 14:53 | 41.04583 | -6.40881 | 40960 ft | 458 kts | 237° |
| 2026-05-07 14:54 | 41.00900 | -6.47759 | 40959 ft | 457 kts | 237° |
| 2026-05-07 14:54 | 40.97243 | -6.54573 | 40961 ft | 457 kts | 237° |
| 2026-05-07 14:55 | 40.93562 | -6.61418 | 40955 ft | 456 kts | 237° |
| 2026-05-07 14:55 | 40.89890 | -6.68232 | 40955 ft | 455 kts | 237° |
| 2026-05-07 14:56 | 40.86212 | -6.75040 | 40952 ft | 454 kts | 237° |
| 2026-05-07 14:56 | 40.82540 | -6.81826 | 40905 ft | 454 kts | 237° |
| 2026-05-07 14:57 | 40.78865 | -6.88600 | 40836 ft | 453 kts | 237° |
| 2026-05-07 14:57 | 40.75190 | -6.95359 | 40773 ft | 452 kts | 237° |
| 2026-05-07 14:58 | 40.71557 | -7.02024 | 40396 ft | 442 kts | 237° |
| 2026-05-07 14:58 | 40.69783 | -7.05267 | 40119 ft | 432 kts | 237° |
| 2026-05-07 14:58 | 40.68011 | -7.08513 | 39974 ft | 438 kts | 237° |
| 2026-05-07 14:59 | 40.64431 | -7.15062 | 39726 ft | 438 kts | 237° |
| 2026-05-07 14:59 | 40.62660 | -7.18291 | 39321 ft | 432 kts | 237° |
| 2026-05-07 14:59 | 40.60908 | -7.21480 | 38878 ft | 428 kts | 238° |
| 2026-05-07 15:00 | 40.59170 | -7.24640 | 38432 ft | 425 kts | 238° |
| 2026-05-07 15:00 | 40.57442 | -7.27783 | 37806 ft | 424 kts | 238° |
| 2026-05-07 15:00 | 40.55715 | -7.30921 | 37209 ft | 423 kts | 238° |
| 2026-05-07 15:00 | 40.53995 | -7.34046 | 36608 ft | 422 kts | 238° |
| 2026-05-07 15:01 | 40.52268 | -7.37178 | 36012 ft | 420 kts | 239° |
| 2026-05-07 15:01 | 40.50569 | -7.40256 | 35287 ft | 422 kts | 239° |
| 2026-05-07 15:01 | 40.48852 | -7.43362 | 34542 ft | 422 kts | 239° |
| 2026-05-07 15:01 | 40.47118 | -7.46496 | 33759 ft | 422 kts | 240° |
| 2026-05-07 15:02 | 40.45390 | -7.49621 | 32775 ft | 424 kts | 239° |
| 2026-05-07 15:02 | 40.43646 | -7.52782 | 31638 ft | 430 kts | 239° |
| 2026-05-07 15:02 | 40.41876 | -7.55986 | 30605 ft | 436 kts | 239° |
| 2026-05-07 15:02 | 40.40090 | -7.59201 | 29861 ft | 434 kts | 239° |
| 2026-05-07 15:03 | 40.38316 | -7.62388 | 29224 ft | 429 kts | 238° |
| 2026-05-07 15:03 | 40.36555 | -7.65545 | 28965 ft | 433 kts | 238° |
| 2026-05-07 15:03 | 40.34747 | -7.68799 | 28856 ft | 446 kts | 238° |
| 2026-05-07 15:03 | 40.32903 | -7.72111 | 28848 ft | 454 kts | 238° |
| 2026-05-07 15:04 | 40.29135 | -7.78855 | 28848 ft | 460 kts | 238° |
| 2026-05-07 15:04 | 40.25356 | -7.85599 | 28852 ft | 462 kts | 238° |
| 2026-05-07 15:05 | 40.21551 | -7.92379 | 28856 ft | 462 kts | 237° |
| 2026-05-07 15:05 | 40.17745 | -7.99149 | 28857 ft | 461 kts | 237° |
| 2026-05-07 15:06 | 40.13937 | -8.05911 | 28857 ft | 461 kts | 237° |
| 2026-05-07 15:06 | 40.10129 | -8.12658 | 28859 ft | 461 kts | 237° |
| 2026-05-07 15:07 | 40.06319 | -8.19394 | 28864 ft | 460 kts | 237° |
| 2026-05-07 15:07 | 40.02252 | -8.25797 | 28865 ft | 466 kts | 226° |
| 2026-05-07 15:08 | 39.99632 | -8.28321 | 28861 ft | 473 kts | 215° |
| 2026-05-07 15:08 | 39.96647 | -8.30192 | 28863 ft | 480 kts | 205° |
| 2026-05-07 15:08 | 39.93399 | -8.31297 | 28878 ft | 487 kts | 194° |
| 2026-05-07 15:08 | 39.90023 | -8.31813 | 28867 ft | 488 kts | 191° |
| 2026-05-07 15:09 | 39.83269 | -8.32795 | 28869 ft | 488 kts | 191° |
| 2026-05-07 15:09 | 39.76514 | -8.33821 | 28879 ft | 488 kts | 192° |
| 2026-05-07 15:10 | 39.70074 | -8.36006 | 28876 ft | 473 kts | 210° |
| 2026-05-07 15:10 | 39.64742 | -8.40741 | 28858 ft | 465 kts | 223° |
| 2026-05-07 15:11 | 39.62312 | -8.43409 | 28611 ft | 449 kts | 224° |
| 2026-05-07 15:11 | 39.59972 | -8.46006 | 28347 ft | 434 kts | 224° |
| 2026-05-07 15:11 | 39.57708 | -8.48490 | 28078 ft | 422 kts | 224° |
| 2026-05-07 15:11 | 39.55450 | -8.50940 | 27802 ft | 424 kts | 224° |
| 2026-05-07 15:12 | 39.53169 | -8.53392 | 27551 ft | 427 kts | 223° |
| 2026-05-07 15:12 | 39.51657 | -8.55007 | 27384 ft | 425 kts | 223° |
| 2026-05-07 15:12 | 39.49377 | -8.57432 | 27120 ft | 423 kts | 223° |
| 2026-05-07 15:12 | 39.47107 | -8.59842 | 26780 ft | 420 kts | 223° |
| 2026-05-07 15:13 | 39.44130 | -8.63000 | 26000 ft | 417 kts | 223° |
| 2026-05-07 15:13 | 39.42621 | -8.64601 | 25558 ft | 413 kts | 222° |
| 2026-05-07 15:13 | 39.40399 | -8.66957 | 24732 ft | 411 kts | 222° |
| 2026-05-07 15:13 | 39.38197 | -8.69292 | 23984 ft | 408 kts | 221° |
| 2026-05-07 15:14 | 39.36006 | -8.71613 | 23176 ft | 405 kts | 221° |
| 2026-05-07 15:14 | 39.33860 | -8.73882 | 22362 ft | 401 kts | 221° |
| 2026-05-07 15:14 | 39.31714 | -8.76148 | 21530 ft | 397 kts | 221° |
| 2026-05-07 15:14 | 39.29591 | -8.78388 | 20715 ft | 393 kts | 221° |
| 2026-05-07 15:15 | 39.27456 | -8.80639 | 19930 ft | 388 kts | 220° |
| 2026-05-07 15:15 | 39.25394 | -8.82809 | 19156 ft | 385 kts | 220° |
| 2026-05-07 15:15 | 39.23329 | -8.84983 | 18389 ft | 381 kts | 220° |
| 2026-05-07 15:15 | 39.21285 | -8.87133 | 17529 ft | 377 kts | 220° |
| 2026-05-07 15:16 | 39.19270 | -8.89254 | 16705 ft | 371 kts | 220° |
| 2026-05-07 15:16 | 39.17294 | -8.91332 | 15745 ft | 364 kts | 219° |
| 2026-05-07 15:16 | 39.15348 | -8.93381 | 14714 ft | 360 kts | 219° |
| 2026-05-07 15:16 | 39.13419 | -8.95408 | 13693 ft | 356 kts | 218° |
| 2026-05-07 15:17 | 39.11513 | -8.97407 | 12996 ft | 344 kts | 218° |
| 2026-05-07 15:17 | 39.09729 | -8.99274 | 12482 ft | 327 kts | 218° |
| 2026-05-07 15:17 | 39.07931 | -9.01153 | 11599 ft | 330 kts | 218° |
| 2026-05-07 15:17 | 39.06152 | -9.03012 | 10937 ft | 328 kts | 218° |
| 2026-05-07 15:18 | 39.04395 | -9.04847 | 10330 ft | 323 kts | 218° |
| 2026-05-07 15:18 | 39.02703 | -9.06613 | 10007 ft | 313 kts | 218° |
| 2026-05-07 15:18 | 39.00999 | -9.08370 | 9772 ft | 319 kts | 216° |
| 2026-05-07 15:18 | 38.99108 | -9.09874 | 9647 ft | 320 kts | 206° |
| 2026-05-07 15:19 | 38.97059 | -9.10996 | 9528 ft | 319 kts | 201° |
| 2026-05-07 15:19 | 38.95014 | -9.12060 | 9166 ft | 315 kts | 201° |
| 2026-05-07 15:19 | 38.92999 | -9.13123 | 8883 ft | 310 kts | 202° |
| 2026-05-07 15:19 | 38.91072 | -9.14341 | 8733 ft | 311 kts | 214° |
| 2026-05-07 15:20 | 38.89457 | -9.16223 | 8615 ft | 317 kts | 224° |
| 2026-05-07 15:20 | 38.87921 | -9.18283 | 8490 ft | 319 kts | 225° |
| 2026-05-07 15:20 | 38.86408 | -9.20352 | 8370 ft | 318 kts | 225° |
| 2026-05-07 15:20 | 38.84898 | -9.22396 | 8126 ft | 314 kts | 225° |
| 2026-05-07 15:21 | 38.83383 | -9.24406 | 7599 ft | 311 kts | 224° |
| 2026-05-07 15:21 | 38.81867 | -9.26382 | 6879 ft | 309 kts | 224° |
| 2026-05-07 15:21 | 38.80349 | -9.28351 | 6155 ft | 310 kts | 223° |
| 2026-05-07 15:21 | 38.78853 | -9.30276 | 5447 ft | 306 kts | 224° |
| 2026-05-07 15:22 | 38.77364 | -9.32187 | 4734 ft | 301 kts | 225° |
| 2026-05-07 15:22 | 38.75901 | -9.34065 | 4220 ft | 291 kts | 225° |
| 2026-05-07 15:22 | 38.74529 | -9.35833 | 4018 ft | 264 kts | 226° |
| 2026-05-07 15:22 | 38.73307 | -9.37414 | 3972 ft | 237 kts | 226° |
| 2026-05-07 15:23 | 38.72188 | -9.38826 | 3952 ft | 217 kts | 220° |
| 2026-05-07 15:23 | 38.70860 | -9.39614 | 3974 ft | 210 kts | 191° |
| 2026-05-07 15:23 | 38.69439 | -9.39408 | 3964 ft | 205 kts | 158° |
| 2026-05-07 15:23 | 38.68323 | -9.38295 | 3975 ft | 207 kts | 129° |
| 2026-05-07 15:24 | 38.67466 | -9.36811 | 3975 ft | 208 kts | 127° |
| 2026-05-07 15:24 | 38.66628 | -9.35367 | 3975 ft | 195 kts | 128° |
| 2026-05-07 15:24 | 38.65824 | -9.34037 | 3971 ft | 185 kts | 130° |
| 2026-05-07 15:24 | 38.65015 | -9.32748 | 3975 ft | 186 kts | 131° |
| 2026-05-07 15:25 | 38.64202 | -9.31473 | 3971 ft | 184 kts | 131° |
| 2026-05-07 15:25 | 38.63400 | -9.30220 | 3975 ft | 185 kts | 131° |
| 2026-05-07 15:25 | 38.62592 | -9.28948 | 3975 ft | 184 kts | 131° |
| 2026-05-07 15:25 | 38.61784 | -9.27672 | 3977 ft | 185 kts | 131° |
| 2026-05-07 15:26 | 38.60985 | -9.26373 | 3936 ft | 188 kts | 126° |
| 2026-05-07 15:26 | 38.60647 | -9.24784 | 3756 ft | 189 kts | 85° |
| 2026-05-07 15:26 | 38.61167 | -9.23268 | 3571 ft | 189 kts | 47° |
| 2026-05-07 15:26 | 38.62166 | -9.22239 | 3366 ft | 181 kts | 26° |
| 2026-05-07 15:27 | 38.63290 | -9.21527 | 3153 ft | 180 kts | 19° |
| 2026-05-07 15:27 | 38.64439 | -9.20926 | 2908 ft | 177 kts | 17° |
| 2026-05-07 15:27 | 38.65543 | -9.20328 | 2679 ft | 164 kts | 17° |
| 2026-05-07 15:27 | 38.66570 | -9.19780 | 2465 ft | 162 kts | 17° |
| 2026-05-07 15:28 | 38.67602 | -9.19224 | 2252 ft | 160 kts | 17° |
| 2026-05-07 15:28 | 38.68619 | -9.18686 | 2031 ft | 153 kts | 17° |
| 2026-05-07 15:28 | 38.69630 | -9.18145 | 1827 ft | 161 kts | 15° |
| 2026-05-07 15:28 | 38.70647 | -9.17600 | 1614 ft | 157 kts | 16° |
| 2026-05-07 15:29 | 38.71653 | -9.17065 | 1398 ft | 157 kts | 16° |
| 2026-05-07 15:29 | 38.72634 | -9.16532 | 1171 ft | 151 kts | 16° |
| 2026-05-07 15:29 | 38.73655 | -9.15998 | 979 ft | 160 kts | 18° |
| 2026-05-07 15:29 | 38.74636 | -9.15461 | 751 ft | 157 kts | 17° |
| 2026-05-07 15:30 | 38.75674 | -9.14930 | 631 ft | 156 kts | 17° |
| 2026-05-07 15:30 | 38.76620 | -9.14383 | 410 ft | 142 kts | 14° |
| 2026-05-07 15:30 | 38.77466 | -9.13956 | 359 ft | 109 kts | 22° |
| 2026-05-07 15:30 | 38.77979 | -9.13684 | 360 ft | 51 kts | 24° |
| 2026-05-07 15:31 | 38.78204 | -9.13543 | 363 ft | 23 kts | 44° |
| 2026-05-07 15:31 | 38.78201 | -9.13476 | 364 ft | 6 kts | 139° |
| 2026-05-07 15:31 | 38.78157 | -9.13453 | 359 ft | 8 kts | 165° |
| 2026-05-07 15:31 | 38.78090 | -9.13432 | 361 ft | 11 kts | 166° |
| 2026-05-07 15:32 | 38.78005 | -9.13409 | 356 ft | 14 kts | 168° |
| 2026-05-07 15:32 | 38.77906 | -9.13383 | 353 ft | 15 kts | 168° |
| 2026-05-07 15:32 | 38.77793 | -9.13353 | 355 ft | 17 kts | 168° |
| 2026-05-07 15:32 | 38.77672 | -9.13323 | 360 ft | 19 kts | 169° |
| 2026-05-07 15:33 | 38.77539 | -9.13310 | 359 ft | 20 kts | 174° |
| 2026-05-07 15:33 | 38.77474 | -9.13255 | 354 ft | 6 kts | 97° |
| 2026-05-07 15:33 | 38.77484 | -9.13187 | 358 ft | 9 kts | 78° |
| 2026-05-07 15:33 | 38.77487 | -9.13168 | 356 ft | 0 kts | 79° |
| 2026-05-07 15:34 | 38.77487 | -9.13167 | 356 ft | 0 kts | 79° |